createdAt,value
2019-01-22T03:30:46.452Z,65.50
2019-01-22T03:33:43.382Z,65.40
2019-01-22T03:36:32.620Z,65.10
2019-01-22T03:39:17.105Z,65.30
2019-01-22T03:41:58.387Z,65.00
2019-01-22T03:44:47.583Z,65.10
2019-01-22T03:47:37.897Z,65.10
2019-01-22T03:50:19.000Z,64.80
2019-01-22T03:53:00.165Z,64.80
2019-01-22T03:55:44.279Z,64.50
2019-01-22T03:58:13.859Z,65.10
2019-01-22T04:00:43.841Z,65.20
2019-01-22T04:03:13.488Z,65.00
2019-01-22T04:05:43.029Z,64.80
2019-01-22T04:08:12.555Z,64.60
2019-01-22T04:10:41.861Z,64.50
2019-01-22T04:13:12.080Z,64.50
2019-01-22T04:15:41.631Z,64.60
2019-01-22T04:18:11.510Z,64.50
2019-01-22T04:20:40.772Z,64.50
2019-01-22T04:23:10.152Z,64.20
2019-01-22T04:25:43.084Z,64.20
2019-01-22T04:28:32.239Z,64.70
2019-01-22T04:31:07.405Z,65.00
2019-01-22T04:34:00.838Z,65.20
2019-01-22T04:37:04.570Z,65.20
2019-01-22T04:39:57.836Z,64.70
2019-01-22T04:42:47.019Z,65.50
2019-01-22T04:45:25.579Z,66.00
2019-01-22T04:48:23.620Z,65.70
2019-01-22T04:51:05.036Z,66.00
2019-01-22T04:53:57.581Z,66.00
2019-01-22T04:56:54.434Z,65.90
2019-01-22T04:59:26.996Z,65.80
2019-01-22T05:02:11.442Z,65.90
2019-01-22T05:04:43.948Z,66.10
2019-01-22T05:07:34.636Z,66.10
2019-01-22T05:10:28.481Z,66.10
2019-01-22T05:13:12.861Z,65.50
2019-01-22T05:15:57.844Z,65.80
2019-01-22T05:18:45.268Z,65.80
2019-01-22T05:21:30.177Z,65.90
2019-01-22T05:24:20.621Z,66.20
2019-01-22T05:27:08.249Z,66.20
2019-01-22T05:29:46.788Z,65.70
2019-01-22T05:32:52.808Z,65.70
2019-01-22T05:35:25.380Z,65.10
2019-01-22T05:38:09.995Z,65.70
2019-01-22T05:40:42.535Z,65.90
2019-01-22T05:43:27.291Z,66.10
2019-01-22T05:46:00.111Z,66.00
2019-01-22T05:48:47.689Z,65.50
2019-01-22T05:51:20.258Z,65.90
2019-01-22T05:53:52.835Z,65.90
2019-01-22T05:56:30.971Z,66.00
2019-01-22T05:59:15.093Z,66.10
2019-01-22T06:01:47.604Z,65.90
2019-01-22T06:04:39.759Z,66.00
2019-01-22T06:07:24.032Z,65.70
2019-01-22T06:10:02.363Z,65.50
2019-01-22T06:12:53.203Z,66.00
2019-01-22T06:15:37.579Z,65.90
2019-01-22T06:18:25.410Z,66.10
2019-01-22T06:21:07.412Z,66.10
2019-01-22T06:23:48.923Z,65.80
2019-01-22T06:26:27.644Z,65.90
2019-01-22T06:29:20.725Z,65.70
2019-01-22T06:31:59.076Z,65.80
2019-01-22T06:34:51.428Z,66.10
2019-01-22T06:37:35.888Z,66.30
2019-01-22T06:40:11.060Z,66.30
2019-01-22T06:43:00.044Z,66.70
2019-01-22T06:45:48.388Z,67.00
2019-01-22T06:48:31.184Z,68.00
2019-01-22T06:51:22.200Z,67.30
2019-01-22T06:54:15.875Z,67.30
2019-01-22T06:57:04.407Z,66.80
2019-01-22T06:59:45.452Z,66.20
2019-01-22T07:02:18.020Z,66.30
2019-01-22T07:05:02.931Z,66.10
2019-01-22T07:08:05.298Z,66.00
2019-01-22T07:10:44.820Z,66.10
2019-01-22T07:13:29.012Z,67.20
2019-01-22T07:16:01.531Z,66.70
2019-01-22T07:18:52.531Z,66.40
2019-01-22T07:21:30.675Z,66.30
2019-01-22T07:24:05.721Z,66.10
2019-01-22T07:26:44.143Z,66.00
2019-01-22T07:29:36.445Z,66.20
2019-01-22T07:32:20.712Z,66.60
2019-01-22T07:35:23.479Z,66.50
2019-01-22T07:38:04.912Z,66.20
2019-01-22T07:40:43.198Z,67.00
2019-01-22T07:43:24.931Z,67.20
2019-01-22T07:46:02.907Z,67.40
2019-01-22T07:48:49.865Z,67.20
2019-01-22T07:51:46.631Z,67.00
2019-01-22T07:54:22.103Z,66.50
2019-01-22T07:57:09.496Z,66.40
2019-01-22T07:59:44.755Z,67.60
2019-01-22T08:02:32.128Z,67.30
2019-01-22T08:05:12.112Z,67.70
2019-01-22T08:07:58.179Z,67.80
2019-01-22T08:10:36.220Z,67.40
2019-01-22T08:13:26.623Z,66.80
2019-01-22T08:16:04.919Z,66.80
2019-01-22T08:18:59.519Z,66.50
2019-01-22T08:22:03.515Z,67.20
2019-01-22T08:24:38.860Z,67.60
2019-01-22T08:27:23.204Z,68.50
2019-01-22T08:29:58.527Z,69.20
2019-01-22T08:32:46.056Z,69.00
2019-01-22T08:35:21.831Z,69.40
2019-01-22T08:38:03.116Z,69.30
2019-01-22T08:41:09.128Z,69.10
2019-01-22T08:44:00.040Z,68.70
2019-01-22T08:46:47.511Z,69.40
2019-01-22T08:49:38.244Z,70.30
2019-01-22T08:52:14.171Z,70.90
2019-01-22T08:55:20.251Z,70.90
2019-01-22T08:57:52.821Z,70.90
2019-01-22T09:00:34.250Z,71.20
2019-01-22T09:03:13.844Z,71.40
2019-01-22T09:06:04.359Z,72.00
2019-01-22T09:08:42.823Z,71.80
2019-01-22T09:11:27.932Z,71.80
2019-01-22T09:14:09.044Z,72.40
2019-01-22T09:16:44.231Z,72.00
2019-01-22T09:19:37.604Z,72.10
2019-01-22T09:22:43.476Z,71.40
2019-01-22T09:25:18.591Z,71.60
2019-01-22T09:27:59.916Z,71.80
2019-01-22T09:30:50.372Z,72.40
2019-01-22T09:33:25.764Z,72.00
2019-01-22T09:36:10.379Z,72.20
2019-01-22T09:38:39.747Z,72.60
2019-01-22T09:41:09.007Z,71.70
2019-01-22T09:43:38.307Z,71.40
2019-01-22T09:46:07.913Z,71.20
2019-01-22T09:48:38.136Z,71.30
2019-01-22T09:51:07.439Z,71.90
2019-01-22T09:53:37.369Z,71.10
2019-01-22T09:56:07.243Z,71.00
2019-01-22T09:58:36.504Z,71.30
2019-01-22T10:01:05.808Z,71.40
2019-01-22T10:03:35.635Z,72.40
2019-01-22T10:06:05.291Z,71.30
2019-01-22T10:08:34.556Z,71.10
2019-01-22T10:11:03.816Z,71.30
2019-01-22T10:13:33.123Z,71.80
2019-01-22T10:16:02.759Z,71.40
2019-01-22T10:18:32.020Z,71.00
2019-01-22T10:21:02.231Z,70.40
2019-01-22T10:23:32.201Z,69.90
2019-01-22T10:26:02.828Z,70.10
2019-01-22T10:28:32.131Z,70.50
2019-01-22T10:31:02.611Z,70.90
2019-01-22T10:33:32.306Z,70.80
2019-01-22T10:36:02.584Z,70.30
2019-01-22T10:38:31.879Z,70.00
2019-01-22T10:41:03.095Z,70.70
2019-01-22T10:43:32.400Z,70.30
2019-01-22T10:46:02.618Z,69.50
2019-01-22T10:48:31.924Z,69.70
2019-01-22T10:51:01.190Z,70.30
2019-01-22T10:53:32.237Z,70.10
2019-01-22T10:56:02.887Z,70.40
2019-01-22T10:58:32.153Z,70.50
2019-01-22T11:01:02.868Z,70.10
2019-01-22T11:03:32.296Z,70.00
2019-01-22T11:06:03.459Z,68.90
2019-01-22T11:08:33.390Z,68.30
2019-01-22T11:11:03.719Z,68.30
2019-01-22T11:13:33.327Z,67.40
2019-01-22T11:16:03.495Z,66.40
2019-01-22T11:18:34.332Z,66.40
2019-01-22T11:21:04.155Z,65.80
2019-01-22T11:23:33.453Z,66.00
2019-01-22T11:26:03.628Z,65.50
2019-01-22T11:28:32.884Z,64.80
2019-01-22T11:31:02.599Z,65.50
2019-01-22T11:33:33.566Z,64.10
2019-01-22T11:36:02.819Z,63.90
2019-01-22T11:38:33.412Z,64.30
2019-01-22T11:41:04.048Z,64.20
2019-01-22T11:43:33.453Z,62.90
2019-01-22T11:46:02.700Z,63.50
2019-01-22T11:48:32.988Z,63.10
2019-01-22T11:51:04.055Z,61.60
2019-01-22T11:53:33.316Z,61.20
2019-01-22T11:56:03.541Z,59.70
2019-01-22T11:58:32.831Z,59.50
2019-01-22T12:01:03.996Z,59.00
2019-01-22T12:03:33.596Z,58.30
2019-01-22T12:06:03.548Z,58.10
2019-01-22T12:08:32.851Z,57.50
2019-01-22T12:11:03.181Z,56.20
2019-01-22T12:13:32.436Z,55.50
2019-01-22T12:16:02.953Z,55.50
2019-01-22T12:18:32.274Z,55.20
2019-01-22T12:21:03.157Z,55.20
2019-01-22T12:23:32.409Z,55.30
2019-01-22T12:26:02.985Z,55.70
2019-01-22T12:28:32.344Z,55.00
2019-01-22T12:31:03.795Z,55.00
2019-01-22T12:33:33.668Z,54.90
2019-01-22T12:36:03.219Z,54.50
2019-01-22T12:38:32.475Z,54.10
2019-01-22T12:41:02.733Z,53.60
2019-01-22T12:43:33.058Z,53.30
2019-01-22T12:46:02.926Z,52.70
2019-01-22T12:48:32.223Z,52.30
2019-01-22T12:51:01.551Z,52.90
2019-01-22T12:53:30.853Z,54.80
2019-01-22T12:56:04.600Z,54.40
2019-01-22T12:58:32.739Z,53.90
2019-01-22T13:01:03.917Z,52.30
2019-01-22T13:03:33.883Z,51.40
2019-01-22T13:06:03.780Z,51.40
2019-01-22T13:08:33.083Z,51.70
2019-01-22T13:11:02.907Z,50.60
2019-01-22T13:13:32.212Z,51.20
2019-01-22T13:16:01.466Z,51.40
2019-01-22T13:18:30.765Z,50.40
2019-01-22T13:21:00.021Z,49.80
2019-01-22T13:23:29.280Z,49.70
2019-01-22T13:25:59.248Z,48.90
2019-01-22T13:28:28.891Z,48.40
2019-01-22T13:30:58.218Z,47.90
2019-01-22T13:33:28.189Z,47.50
2019-01-22T13:35:57.451Z,47.40
2019-01-22T13:38:27.271Z,47.50
2019-01-22T13:40:56.572Z,48.00
2019-01-22T13:43:26.425Z,48.60
2019-01-22T13:45:55.679Z,48.00
2019-01-22T13:48:25.255Z,48.40
2019-01-22T13:50:54.633Z,48.10
2019-01-22T13:53:23.841Z,47.40
2019-01-22T13:55:53.140Z,47.40
2019-01-22T13:58:22.435Z,47.30
2019-01-22T14:00:52.840Z,46.80
2019-01-22T14:03:22.535Z,47.10
2019-01-22T14:05:51.799Z,47.30
2019-01-22T14:08:21.612Z,45.50
2019-01-22T14:10:51.220Z,46.20
2019-01-22T14:13:21.712Z,45.90
2019-01-22T14:15:51.256Z,46.10
2019-01-22T14:18:20.564Z,46.00
2019-01-22T14:20:50.525Z,46.60
2019-01-22T14:23:19.779Z,46.60
2019-01-22T14:25:49.035Z,47.50
2019-01-22T14:28:19.195Z,46.90
2019-01-22T14:30:49.120Z,47.60
2019-01-22T14:33:19.436Z,48.00
2019-01-22T14:35:49.043Z,48.30
2019-01-22T14:38:18.413Z,48.50
2019-01-22T14:40:47.664Z,48.90
2019-01-22T14:43:16.929Z,49.30
2019-01-22T14:45:47.459Z,49.50
2019-01-22T14:48:16.711Z,49.70
2019-01-22T14:50:45.963Z,50.00
2019-01-22T14:53:15.267Z,50.20
2019-01-22T14:55:44.566Z,49.80
2019-01-22T14:58:14.089Z,49.80
2019-01-22T15:00:43.701Z,50.60
2019-01-22T15:03:13.002Z,50.80
2019-01-22T15:05:43.224Z,51.10
2019-01-22T15:08:12.480Z,51.30
2019-01-22T15:10:42.138Z,51.50
2019-01-22T15:13:12.506Z,51.80
2019-01-22T15:15:41.723Z,51.80
2019-01-22T15:18:11.023Z,51.50
2019-01-22T15:20:40.847Z,51.40
2019-01-22T15:23:10.676Z,51.30
2019-01-22T15:25:39.972Z,51.60
2019-01-22T15:28:10.112Z,51.60
2019-01-22T15:30:39.923Z,51.60
2019-01-22T15:33:09.224Z,51.90
2019-01-22T15:35:39.452Z,52.00
2019-01-22T15:38:08.753Z,52.20
2019-01-22T15:40:38.018Z,52.20
2019-01-22T15:43:07.303Z,52.30
2019-01-22T15:45:37.132Z,52.70
2019-01-22T15:48:06.392Z,53.60
2019-01-22T15:50:35.697Z,53.40
2019-01-22T15:53:05.152Z,53.70
2019-01-22T15:55:34.457Z,53.60
2019-01-22T15:58:05.620Z,53.50
2019-01-22T16:00:35.543Z,53.80
2019-01-22T16:03:04.912Z,54.20
2019-01-22T16:05:34.172Z,54.40
2019-01-22T16:08:03.423Z,54.50
2019-01-22T16:10:33.112Z,54.40
2019-01-22T16:13:03.940Z,54.50
2019-01-22T16:15:33.195Z,54.90
2019-01-22T16:18:02.456Z,55.40
2019-01-22T16:20:31.756Z,55.10
2019-01-22T16:23:03.621Z,55.10
2019-01-22T16:25:33.464Z,54.90
2019-01-22T16:28:04.415Z,55.20
2019-01-22T16:30:34.120Z,55.50
2019-01-22T16:33:03.828Z,55.70
2019-01-22T16:35:33.579Z,55.70
2019-01-22T16:38:03.455Z,55.80
2019-01-22T16:40:32.972Z,55.90
2019-01-22T16:43:02.575Z,56.20
2019-01-22T16:45:33.640Z,56.30
2019-01-22T16:48:03.557Z,56.40
2019-01-22T16:50:33.825Z,56.80
2019-01-22T16:53:05.272Z,56.80
2019-01-22T16:55:37.265Z,56.90
2019-01-22T16:58:06.565Z,57.00
2019-01-22T17:00:37.012Z,57.10
2019-01-22T17:03:07.848Z,57.00
2019-01-22T17:05:37.167Z,57.00
2019-01-22T17:08:06.467Z,57.10
2019-01-22T17:10:35.860Z,57.00
2019-01-22T17:13:05.175Z,57.40
2019-01-22T17:15:34.428Z,57.30
2019-01-22T17:18:05.591Z,57.20
2019-01-22T17:20:38.155Z,57.30
2019-01-22T17:23:09.348Z,58.10
2019-01-22T17:25:39.028Z,57.70
2019-01-22T17:28:08.352Z,57.70
2019-01-22T17:30:38.350Z,57.50
2019-01-22T17:33:19.425Z,57.60
2019-01-22T17:35:48.900Z,57.60
2019-01-22T17:38:18.157Z,57.60
2019-01-22T17:40:47.408Z,57.50
2019-01-22T17:43:17.552Z,57.70
2019-01-22T17:45:48.512Z,57.80
2019-01-22T17:48:17.773Z,57.10
2019-01-22T17:50:47.071Z,57.70
2019-01-22T17:53:16.336Z,57.80
2019-01-22T17:55:46.161Z,57.80
2019-01-22T17:58:15.716Z,58.10
2019-01-22T18:00:45.021Z,58.40
2019-01-22T18:03:14.901Z,58.10
2019-01-22T18:05:44.152Z,58.30
2019-01-22T18:08:13.413Z,58.10
2019-01-22T18:10:43.288Z,58.30
2019-01-22T18:13:13.171Z,58.50
2019-01-22T18:15:42.480Z,58.80
2019-01-22T18:18:12.075Z,58.70
2019-01-22T18:20:41.343Z,58.60
2019-01-22T18:23:10.882Z,58.80
2019-01-22T18:25:40.204Z,59.00
2019-01-22T18:28:09.679Z,59.00
2019-01-22T18:30:38.939Z,59.00
2019-01-22T18:33:08.272Z,59.40
2019-01-22T18:35:39.673Z,59.30
2019-01-22T18:38:09.353Z,59.50
2019-01-22T18:40:39.583Z,59.70
2019-01-22T18:43:09.085Z,59.80
2019-01-22T18:45:38.693Z,59.80
2019-01-22T18:48:07.952Z,59.70
2019-01-22T18:50:37.284Z,59.20
2019-01-22T18:53:07.211Z,59.10
2019-01-22T18:55:36.488Z,59.70
2019-01-22T18:58:06.367Z,59.60
2019-01-22T19:00:36.651Z,59.70
2019-01-22T19:03:05.976Z,60.80
2019-01-22T19:05:35.910Z,60.80
2019-01-22T19:08:05.218Z,60.20
2019-01-22T19:10:34.884Z,60.70
2019-01-22T19:13:05.000Z,61.30
2019-01-22T19:15:34.612Z,61.80
2019-01-22T19:18:03.880Z,61.50
2019-01-22T19:20:33.141Z,61.30
2019-01-22T19:23:02.720Z,61.40
2019-01-22T19:25:31.983Z,61.30
2019-01-22T19:28:01.429Z,61.50
2019-01-22T19:30:31.977Z,61.70
2019-01-22T19:33:01.976Z,61.90
2019-01-22T19:35:31.239Z,61.60
2019-01-22T19:38:00.884Z,62.30
2019-01-22T19:40:30.819Z,62.20
2019-01-22T19:43:00.119Z,62.60
2019-01-22T19:45:31.817Z,62.90
2019-01-22T19:48:02.715Z,63.40
2019-01-22T19:50:32.027Z,62.80
2019-01-22T19:53:01.822Z,63.20
2019-01-22T19:55:31.124Z,63.40
2019-01-22T19:58:00.384Z,63.20
2019-01-22T20:00:35.148Z,63.50
2019-01-22T20:03:05.580Z,63.50
2019-01-22T20:05:35.492Z,63.90
2019-01-22T20:08:05.123Z,64.00
2019-01-22T20:10:34.431Z,64.50
2019-01-22T20:13:03.687Z,64.40
2019-01-22T20:15:34.029Z,63.80
2019-01-22T20:18:03.540Z,64.00
2019-01-22T20:20:33.144Z,63.70
2019-01-22T20:23:03.517Z,63.70
2019-01-22T20:25:33.339Z,63.50
2019-01-22T20:28:02.645Z,63.70
2019-01-22T20:30:34.092Z,64.00
2019-01-22T20:33:03.400Z,63.90
2019-01-22T20:35:32.660Z,64.20
2019-01-22T20:38:03.200Z,64.40
2019-01-22T20:40:33.023Z,64.20
2019-01-22T20:43:03.203Z,64.00
2019-01-22T20:45:32.818Z,64.60
2019-01-22T20:48:02.768Z,64.10
2019-01-22T20:50:32.627Z,64.10
2019-01-22T20:53:03.181Z,63.70
2019-01-22T20:55:32.439Z,63.70
2019-01-22T20:58:02.900Z,64.10
2019-01-22T21:00:32.831Z,64.60
2019-01-22T21:03:02.152Z,64.70
2019-01-22T21:05:32.083Z,65.10
2019-01-22T21:08:01.379Z,65.10
2019-01-22T21:10:32.402Z,64.90
2019-01-22T21:13:02.612Z,64.30
2019-01-22T21:15:32.832Z,64.20
2019-01-22T21:18:02.141Z,64.20
2019-01-22T21:20:31.397Z,64.70
2019-01-22T21:23:01.040Z,64.60
2019-01-22T21:25:30.304Z,64.20
2019-01-22T21:28:02.591Z,64.30
2019-01-22T21:30:48.743Z,64.50
2019-01-22T21:33:18.315Z,64.50
2019-01-22T21:35:48.346Z,64.50
2019-01-22T21:38:17.595Z,64.50
2019-01-22T21:40:47.418Z,64.50
2019-01-22T21:43:16.723Z,64.20
2019-01-22T21:45:45.991Z,64.30
2019-01-22T21:48:15.860Z,64.20
2019-01-22T21:50:45.180Z,64.80
2019-01-22T21:53:14.436Z,64.90
2019-01-22T21:55:44.272Z,64.40
2019-01-22T21:58:13.643Z,63.90
2019-01-22T22:00:42.910Z,64.50
2019-01-22T22:03:12.320Z,64.60
2019-01-22T22:05:41.619Z,64.80
2019-01-22T22:08:11.500Z,64.80
2019-01-22T22:10:41.015Z,65.00
2019-01-22T22:13:10.275Z,65.30
2019-01-22T22:15:39.579Z,65.40
2019-01-22T22:18:09.738Z,65.30
2019-01-22T22:20:42.456Z,65.30
2019-01-22T22:23:11.067Z,65.40
2019-01-22T22:25:40.367Z,65.10
2019-01-22T22:28:15.136Z,65.10
2019-01-22T22:30:41.080Z,65.10
2019-01-22T22:33:11.047Z,64.60
2019-01-22T22:35:40.319Z,64.20
2019-01-22T22:38:09.620Z,64.00
2019-01-22T22:40:39.699Z,63.90
2019-01-22T22:43:09.010Z,63.80
2019-01-22T22:45:38.643Z,63.70
2019-01-22T22:48:07.912Z,64.00
2019-01-22T22:50:38.122Z,64.80
2019-01-22T22:53:07.383Z,64.60
2019-01-22T22:55:37.212Z,64.40
2019-01-22T22:58:06.861Z,64.50
2019-01-22T23:00:39.848Z,65.50
2019-01-22T23:03:10.944Z,65.10
2019-01-22T23:05:40.203Z,64.90
2019-01-22T23:08:10.133Z,64.80
2019-01-22T23:10:39.436Z,64.80
2019-01-22T23:13:09.019Z,65.00
